Wetterdaten der Wetterstation 36433 Bad Salzungen

Letzte Wetterlage 24.11.2014 14:10
Wetterdiagramm
Tabellarische Darstellung
Datum Temperatur Windchill Feuchte Luftdruck Windrichtung Windstärke Niederschlag
24.11.2014 14:10 7,5 °C 7,5 °C 99 % 1023,8 hPa 270 0.0 0,60 mm
24.11.2014 14:00 7,4 °C 7,4 °C 99 % 1023,8 hPa 163 0.0 0,00 mm
24.11.2014 13:45 7,5 °C 7,5 °C 99 % 1023,8 hPa 353 0.0 0,00 mm
24.11.2014 13:30 7,4 °C 7,4 °C 99 % 1023,9 hPa 180 0.0 0,00 mm
24.11.2014 13:10 6,6 °C 6,6 °C 99 % 1023,7 hPa 135 0.0 0,60 mm
24.11.2014 13:00 6,5 °C 6,5 °C 99 % 1023,6 hPa 131 0.0 0,00 mm
24.11.2014 12:45 6,8 °C 6,8 °C 99 % 1023,7 hPa 104 0.0 0,00 mm
24.11.2014 12:30 7,1 °C 7,1 °C 99 % 1023,5 hPa 130 0.0 0,00 mm
24.11.2014 12:10 6,7 °C 6,7 °C 99 % 1023,5 hPa 135 0.0 0,60 mm
24.11.2014 12:00 6,5 °C 6,5 °C 99 % 1023,5 hPa 111 0.0 0,00 mm
24.11.2014 11:45 6,0 °C 6,0 °C 99 % 1023,4 hPa 135 0.0 0,30 mm
24.11.2014 11:30 5,7 °C 5,7 °C 99 % 1023,4 hPa 135 0.0 0,30 mm
24.11.2014 11:10 5,6 °C 5,6 °C 99 % 1023,2 hPa 135 0.0 0,60 mm
24.11.2014 11:00 5,5 °C 5,5 °C 99 % 1023,2 hPa 131 0.0 0,30 mm
24.11.2014 10:45 5,4 °C 5,4 °C 99 % 1023,1 hPa 115 0.0 0,00 mm
24.11.2014 10:30 5,2 °C 5,2 °C 99 % 1023,2 hPa 92 0.0 0,00 mm
24.11.2014 10:10 5,0 °C 5,0 °C 99 % 1022,9 hPa 135 0.0 0,30 mm
24.11.2014 10:00 4,9 °C 4,9 °C 99 % 1022,8 hPa 127 0.0 0,00 mm
24.11.2014 09:45 4,9 °C 4,9 °C 99 % 1022,5 hPa 118 0.0 0,00 mm
24.11.2014 09:30 4,8 °C 4,8 °C 99 % 1022,3 hPa 104 0.0 0,00 mm
24.11.2014 09:10 4,7 °C 4,7 °C 99 % 1022,2 hPa 90 0.0 0,30 mm
24.11.2014 09:00 4,6 °C 4,6 °C 99 % 1022,2 hPa 111 0.0 0,30 mm
24.11.2014 08:45 4,6 °C 4,6 °C 99 % 1022,2 hPa 119 0.0 0,30 mm
24.11.2014 08:30 4,7 °C 4,7 °C 99 % 1022,0 hPa 128 0.5 0,30 mm
24.11.2014 08:10 4,8 °C 4,8 °C 99 % 1022,0 hPa 90 0.6 0,00 mm
Empfehlen Sie wetter.com
| Mehr
Neue Wetterwarnung

Neue Niederschlagsmeldung
Neue Meldung
Regen Liveticker
    sehr starker Regen/Gewitter
    starker Regen/Gewitter
    mäßiger bis starker Regen
    mäßiger Regen
    leichter bis mäßiger Regen
    kein Regen